createdAt,value
2019-04-29T00:01:17.994Z,82.47
2019-04-29T00:03:46.696Z,82.99
2019-04-29T00:06:15.332Z,83.33
2019-04-29T00:08:43.812Z,83.74
2019-04-29T00:11:12.496Z,84.04
2019-04-29T00:13:41.047Z,84.08
2019-04-29T00:16:16.658Z,84.37
2019-04-29T00:19:03.327Z,84.52
2019-04-29T00:21:31.988Z,84.80
2019-04-29T00:24:03.954Z,84.93
2019-04-29T00:26:30.803Z,85.13
2019-04-29T00:28:59.312Z,85.03
2019-04-29T00:31:27.930Z,85.11
2019-04-29T00:33:56.468Z,85.15
2019-04-29T00:36:26.659Z,85.31
2019-04-29T00:39:13.492Z,85.74
2019-04-29T00:41:59.837Z,85.73
2019-04-29T00:44:28.367Z,86.06
2019-04-29T00:46:56.855Z,86.12
2019-04-29T00:49:25.354Z,86.14
2019-04-29T00:51:53.929Z,86.34
2019-04-29T00:54:35.630Z,86.68
2019-04-29T00:57:04.157Z,86.89
2019-04-29T00:59:32.879Z,87.18
2019-04-29T01:02:01.360Z,87.37
2019-04-29T01:04:29.900Z,87.37
2019-04-29T01:06:58.386Z,87.33
2019-04-29T01:09:26.878Z,87.72
2019-04-29T01:11:55.430Z,87.97
2019-04-29T01:14:23.916Z,87.93
2019-04-29T01:16:52.405Z,87.92
2019-04-29T01:19:22.556Z,87.66
2019-04-29T01:21:51.115Z,87.83
2019-04-29T01:24:19.677Z,87.66
2019-04-29T01:26:55.407Z,87.80
2019-04-29T01:29:25.602Z,88.00
2019-04-29T01:31:54.105Z,88.17
2019-04-29T01:34:24.278Z,88.28
2019-04-29T01:36:52.761Z,88.61
2019-04-29T01:39:22.015Z,88.61
2019-04-29T01:41:52.183Z,88.50
2019-04-29T01:44:22.323Z,88.49
2019-04-29T01:46:50.818Z,88.70
2019-04-29T01:49:19.347Z,88.82
2019-04-29T01:51:47.829Z,88.77
2019-04-29T01:54:16.321Z,88.85
2019-04-29T01:56:44.872Z,88.90
2019-04-29T01:59:13.381Z,89.10
2019-04-29T02:01:42.960Z,89.10
2019-04-29T02:04:11.513Z,89.07
2019-04-29T02:06:40.012Z,89.24
2019-04-29T02:09:10.372Z,89.35
2019-04-29T02:11:40.026Z,89.48
2019-04-29T02:14:08.526Z,89.56
2019-04-29T02:16:37.015Z,89.58
2019-04-29T02:19:06.616Z,89.79
2019-04-29T02:21:35.124Z,89.76
2019-04-29T02:24:05.286Z,89.94
2019-04-29T02:26:33.937Z,90.03
2019-04-29T02:29:02.471Z,90.22
2019-04-29T02:31:41.452Z,90.38
2019-04-29T02:34:10.339Z,90.38
2019-04-29T02:36:38.823Z,90.56
2019-04-29T02:39:10.779Z,90.54
2019-04-29T02:41:40.896Z,90.45
2019-04-29T02:44:11.037Z,90.45
2019-04-29T02:46:39.543Z,90.71
2019-04-29T02:49:08.034Z,90.68
2019-04-29T02:51:50.225Z,90.61
2019-04-29T02:54:18.733Z,90.68
2019-04-29T02:56:51.305Z,90.81
2019-04-29T02:59:21.494Z,91.05
2019-04-29T03:01:57.915Z,91.08
2019-04-29T03:04:28.898Z,91.08
2019-04-29T03:06:57.393Z,91.26
2019-04-29T03:09:25.889Z,91.38
2019-04-29T03:11:54.404Z,91.63
2019-04-29T03:14:22.885Z,91.79
2019-04-29T03:16:51.375Z,91.58
2019-04-29T03:19:21.608Z,91.45
2019-04-29T03:21:57.728Z,91.62
2019-04-29T03:24:26.263Z,91.70
2019-04-29T03:26:54.823Z,91.74
2019-04-29T03:29:23.412Z,91.68
2019-04-29T03:31:53.497Z,91.86
2019-04-29T03:34:22.030Z,91.76
2019-04-29T03:36:50.522Z,91.79
2019-04-29T03:39:19.077Z,91.82
2019-04-29T03:41:47.673Z,91.76
2019-04-29T03:44:16.140Z,91.83
2019-04-29T03:46:44.683Z,91.88
2019-04-29T03:49:13.182Z,91.81
2019-04-29T03:51:41.765Z,91.73
2019-04-29T03:54:11.097Z,91.68
2019-04-29T03:56:39.604Z,91.69
2019-04-29T03:59:08.095Z,91.72
2019-04-29T04:01:38.272Z,91.67
2019-04-29T04:04:20.244Z,91.72
2019-04-29T04:06:52.888Z,91.72
2019-04-29T04:09:23.014Z,91.54
2019-04-29T04:11:51.511Z,91.35
2019-04-29T04:14:20.066Z,91.17
2019-04-29T04:16:56.114Z,90.77
2019-04-29T04:19:25.339Z,90.27
2019-04-29T04:21:53.885Z,89.67
2019-04-29T04:24:22.368Z,88.25
2019-04-29T04:26:50.912Z,87.09
2019-04-29T04:29:19.401Z,85.92
2019-04-29T04:31:47.896Z,84.18
2019-04-29T04:34:16.429Z,81.56
2019-04-29T04:36:44.919Z,80.14
2019-04-29T04:39:13.418Z,79.40
2019-04-29T04:41:41.927Z,78.45
2019-04-29T04:44:10.411Z,78.62
2019-04-29T04:46:38.913Z,78.63
2019-04-29T04:49:07.450Z,78.82
2019-04-29T04:51:35.935Z,78.28
2019-04-29T04:54:04.509Z,78.27
2019-04-29T04:56:33.049Z,78.26
2019-04-29T04:59:01.578Z,78.43
2019-04-29T05:01:30.060Z,78.75
2019-04-29T05:03:58.597Z,78.73
2019-04-29T05:06:27.398Z,79.07
2019-04-29T05:08:55.901Z,79.62
2019-04-29T05:11:24.432Z,80.23
2019-04-29T05:13:52.944Z,80.33
2019-04-29T05:16:21.415Z,80.48
2019-04-29T05:18:49.955Z,81.03
2019-04-29T05:21:18.447Z,81.42
2019-04-29T05:23:46.944Z,81.29
2019-04-29T05:26:15.490Z,81.59
2019-04-29T05:28:43.978Z,81.90
2019-04-29T05:31:12.465Z,82.38
2019-04-29T05:33:41.003Z,82.51
2019-04-29T05:36:13.910Z,82.65
2019-04-29T05:38:44.038Z,82.34
2019-04-29T05:41:12.574Z,82.75
2019-04-29T05:43:51.209Z,82.72
2019-04-29T05:46:23.159Z,82.75
2019-04-29T05:48:51.792Z,82.57
2019-04-29T05:51:38.206Z,82.91
2019-04-29T05:54:20.275Z,82.55
2019-04-29T05:56:48.833Z,82.37
2019-04-29T05:59:17.388Z,82.59
2019-04-29T06:01:47.246Z,82.56
2019-04-29T06:04:18.242Z,82.65
2019-04-29T06:06:47.957Z,83.07
2019-04-29T06:09:18.179Z,83.21
2019-04-29T06:11:46.782Z,82.89
2019-04-29T06:14:15.863Z,83.07
2019-04-29T06:16:44.346Z,83.15
2019-04-29T06:19:12.907Z,83.09
2019-04-29T06:21:41.381Z,83.24
2019-04-29T06:24:09.872Z,83.42
2019-04-29T06:26:38.415Z,83.42
2019-04-29T06:29:06.892Z,83.38
2019-04-29T06:31:35.384Z,83.43
2019-04-29T06:34:05.370Z,83.38
2019-04-29T06:36:34.144Z,83.44
2019-04-29T06:39:02.631Z,83.71
2019-04-29T06:41:31.170Z,83.78
2019-04-29T06:44:00.605Z,83.88
2019-04-29T06:46:29.864Z,84.22
2019-04-29T06:49:09.518Z,84.23
2019-04-29T06:51:28.599Z,84.61
2019-04-29T06:53:57.108Z,84.54
2019-04-29T06:56:26.296Z,84.58
2019-04-29T06:58:54.838Z,84.43
2019-04-29T07:01:23.418Z,84.47
2019-04-29T07:03:51.940Z,84.46
2019-04-29T07:06:20.440Z,84.25
2019-04-29T07:08:49.248Z,84.26
2019-04-29T07:11:17.851Z,84.37
2019-04-29T07:13:46.724Z,84.24
2019-04-29T07:16:17.104Z,83.49
2019-04-29T07:18:49.319Z,83.42
2019-04-29T07:21:15.877Z,83.50
2019-04-29T07:23:44.364Z,82.10
2019-04-29T07:26:12.902Z,81.43
2019-04-29T07:28:41.387Z,80.98
2019-04-29T07:31:10.390Z,80.74
2019-04-29T07:33:39.568Z,80.44
2019-04-29T07:36:11.303Z,79.81
2019-04-29T07:38:41.726Z,79.34
2019-04-29T07:41:10.038Z,78.41
2019-04-29T07:43:42.940Z,77.57
2019-04-29T07:46:12.927Z,78.20
2019-04-29T07:48:43.608Z,78.03
2019-04-29T07:51:11.654Z,78.46
2019-04-29T07:53:45.222Z,77.75
2019-04-29T07:56:10.449Z,76.51
2019-04-29T07:58:38.942Z,75.89
2019-04-29T08:01:07.537Z,76.15
2019-04-29T08:03:36.058Z,76.45
2019-04-29T08:06:04.610Z,76.07
2019-04-29T08:08:33.755Z,74.99
2019-04-29T08:11:02.572Z,74.62
2019-04-29T08:13:31.813Z,73.01
2019-04-29T08:16:00.319Z,72.41
2019-04-29T08:18:28.875Z,69.95
2019-04-29T08:20:57.441Z,69.48
2019-04-29T08:23:25.941Z,68.67
2019-04-29T08:25:57.689Z,69.27
2019-04-29T08:28:24.685Z,69.34
2019-04-29T08:30:53.174Z,69.12
2019-04-29T08:33:21.697Z,69.10
2019-04-29T08:35:50.191Z,69.31
2019-04-29T08:38:18.954Z,68.55
2019-04-29T08:40:50.029Z,67.77
2019-04-29T08:43:20.721Z,67.54
2019-04-29T08:45:59.668Z,67.97
2019-04-29T08:48:28.162Z,68.12
2019-04-29T08:50:56.639Z,67.91
2019-04-29T08:53:25.177Z,68.51
2019-04-29T08:55:53.667Z,68.78
2019-04-29T08:58:22.135Z,68.15
2019-04-29T09:00:51.418Z,67.69
2019-04-29T09:03:23.471Z,65.87
2019-04-29T09:06:03.983Z,66.17
2019-04-29T09:08:21.457Z,66.45
2019-04-29T09:10:50.039Z,66.09
2019-04-29T09:13:18.539Z,65.48
2019-04-29T09:15:47.157Z,65.65
2019-04-29T09:18:15.805Z,65.69
2019-04-29T09:20:44.364Z,66.11
2019-04-29T09:23:17.273Z,66.11
2019-04-29T09:25:47.395Z,66.31
2019-04-29T09:28:22.463Z,65.80
2019-04-29T09:30:48.527Z,66.11
2019-04-29T09:33:17.013Z,66.17
2019-04-29T09:35:45.495Z,66.21
2019-04-29T09:38:14.041Z,66.03
2019-04-29T09:40:45.794Z,65.90
2019-04-29T09:43:21.387Z,65.97
2019-04-29T09:45:58.735Z,65.96
2019-04-29T09:48:26.560Z,65.24
2019-04-29T09:50:55.065Z,64.84
2019-04-29T09:53:23.610Z,65.34
2019-04-29T09:55:54.110Z,65.28
2019-04-29T09:58:23.318Z,65.32
2019-04-29T10:00:53.565Z,65.63
2019-04-29T10:03:23.783Z,65.65
2019-04-29T10:06:06.114Z,65.79
2019-04-29T10:08:34.610Z,65.20
2019-04-29T10:11:03.087Z,65.50
2019-04-29T10:13:31.608Z,65.64
2019-04-29T10:16:02.174Z,64.53
2019-04-29T10:18:35.039Z,64.59
2019-04-29T10:21:05.242Z,65.26
2019-04-29T10:23:33.743Z,65.06
2019-04-29T10:26:02.389Z,63.65
2019-04-29T10:28:31.503Z,63.85
2019-04-29T10:31:00.172Z,63.79
2019-04-29T10:33:28.834Z,63.02
2019-04-29T10:35:57.442Z,63.11
2019-04-29T10:38:25.945Z,63.45
2019-04-29T10:41:00.569Z,62.70
2019-04-29T10:43:53.764Z,62.02
2019-04-29T10:46:33.339Z,62.45
2019-04-29T10:49:06.865Z,62.82
2019-04-29T10:51:35.426Z,62.69
2019-04-29T10:54:03.987Z,63.20
2019-04-29T10:56:35.306Z,63.50
2019-04-29T10:59:04.553Z,63.67
2019-04-29T11:02:01.789Z,64.30
2019-04-29T11:04:25.911Z,63.49
2019-04-29T11:06:54.564Z,62.55
2019-04-29T11:09:40.044Z,62.38
2019-04-29T11:12:10.397Z,62.86
2019-04-29T11:14:39.278Z,62.83
2019-04-29T11:17:16.148Z,62.34
2019-04-29T11:19:40.032Z,61.90
2019-04-29T11:22:09.911Z,61.45
2019-04-29T11:24:43.021Z,61.08
2019-04-29T11:27:16.084Z,61.07
2019-04-29T11:29:44.584Z,60.88
2019-04-29T11:32:33.181Z,60.41
2019-04-29T11:35:05.985Z,60.75
2019-04-29T11:37:34.556Z,60.64
2019-04-29T11:40:03.953Z,61.37
2019-04-29T11:42:36.441Z,60.39
2019-04-29T11:45:04.350Z,60.31
2019-04-29T11:47:32.954Z,61.02
2019-04-29T11:50:16.125Z,61.24
2019-04-29T11:52:44.860Z,60.52
2019-04-29T11:55:13.952Z,59.69
2019-04-29T11:57:45.404Z,59.76
2019-04-29T12:00:22.235Z,59.25
2019-04-29T12:02:52.442Z,59.41
2019-04-29T12:05:34.632Z,59.48
2019-04-29T12:08:11.202Z,59.44
2019-04-29T12:10:33.402Z,59.18
2019-04-29T12:13:03.969Z,58.96
2019-04-29T12:15:39.819Z,59.25
2019-04-29T12:18:12.947Z,59.42
2019-04-29T12:20:43.063Z,59.87
2019-04-29T12:23:15.718Z,59.97
2019-04-29T12:25:41.809Z,59.36
2019-04-29T12:28:18.927Z,59.12
2019-04-29T12:30:42.143Z,58.97
2019-04-29T12:33:24.265Z,58.52
2019-04-29T12:35:58.702Z,58.55
2019-04-29T12:38:39.806Z,58.49
2019-04-29T12:41:21.065Z,58.41
2019-04-29T12:43:54.141Z,58.33
2019-04-29T12:46:23.206Z,58.18
2019-04-29T12:48:51.697Z,57.39
2019-04-29T12:51:20.255Z,57.50
2019-04-29T12:53:48.743Z,57.44
2019-04-29T12:56:18.861Z,57.17
2019-04-29T12:58:50.473Z,57.34
2019-04-29T13:01:50.799Z,57.06
2019-04-29T13:04:22.920Z,57.77
2019-04-29T13:07:02.138Z,57.54
2019-04-29T13:09:41.071Z,56.81
2019-04-29T13:12:19.229Z,56.12
2019-04-29T13:15:02.290Z,55.11
2019-04-29T13:17:22.331Z,54.94
2019-04-29T13:20:02.540Z,55.10
2019-04-29T13:22:31.637Z,54.73
2019-04-29T13:25:00.204Z,54.25
2019-04-29T13:27:28.779Z,54.43
2019-04-29T13:29:57.290Z,54.52
2019-04-29T13:32:29.843Z,53.09
2019-04-29T13:35:00.267Z,50.99
2019-04-29T13:37:28.243Z,49.89
2019-04-29T13:39:56.782Z,51.41
2019-04-29T13:42:25.322Z,51.29
2019-04-29T13:45:07.586Z,49.98
2019-04-29T13:47:30.691Z,47.49
2019-04-29T13:50:31.342Z,47.49
2019-04-29T13:52:48.557Z,47.49
2019-04-29T13:55:29.923Z,46.63
2019-04-29T13:57:49.531Z,44.41
2019-04-29T14:00:24.082Z,43.91
2019-04-29T14:02:59.307Z,44.78
2019-04-29T14:05:26.922Z,44.16
2019-04-29T14:07:55.408Z,44.47
2019-04-29T14:10:24.026Z,43.65
2019-04-29T14:13:05.040Z,43.75
2019-04-29T14:15:23.175Z,42.54
2019-04-29T14:17:51.788Z,43.33
2019-04-29T14:20:20.278Z,43.47
2019-04-29T14:22:49.458Z,43.73
2019-04-29T14:25:17.977Z,43.64
2019-04-29T14:27:46.442Z,43.59
2019-04-29T14:30:16.969Z,43.32
2019-04-29T14:32:46.534Z,42.79
2019-04-29T14:35:26.907Z,43.02
2019-04-29T14:38:00.045Z,43.31
2019-04-29T14:40:27.273Z,42.72
2019-04-29T14:42:58.320Z,42.89
2019-04-29T14:45:29.319Z,43.35
2019-04-29T14:48:11.443Z,43.69
2019-04-29T14:50:41.401Z,43.64
2019-04-29T14:53:09.960Z,43.55
2019-04-29T14:55:38.462Z,42.93
2019-04-29T14:58:06.979Z,42.26
2019-04-29T15:00:52.825Z,42.29
2019-04-29T15:03:32.106Z,43.03
2019-04-29T15:06:00.683Z,43.33
2019-04-29T15:08:32.017Z,43.45
2019-04-29T15:11:08.250Z,43.63
2019-04-29T15:13:52.692Z,43.63
2019-04-29T15:16:39.341Z,43.42
2019-04-29T15:19:18.822Z,44.00
2019-04-29T15:21:49.112Z,44.09
2019-04-29T15:24:17.758Z,44.34
2019-04-29T15:26:46.269Z,44.43
2019-04-29T15:29:14.795Z,44.58
2019-04-29T15:31:47.153Z,44.65
2019-04-29T15:34:14.580Z,45.02
2019-04-29T15:36:43.894Z,45.14
2019-04-29T15:39:12.802Z,45.26
2019-04-29T15:41:41.759Z,44.40
2019-04-29T15:44:18.982Z,42.99
2019-04-29T15:46:47.688Z,43.27
2019-04-29T15:49:10.940Z,44.34
2019-04-29T15:51:39.485Z,44.80
2019-04-29T15:54:09.129Z,45.17
2019-04-29T15:56:38.851Z,45.08
2019-04-29T15:59:10.158Z,44.75
2019-04-29T16:01:41.387Z,44.21
2019-04-29T16:04:20.997Z,44.14
2019-04-29T16:06:51.366Z,45.12
2019-04-29T16:09:30.446Z,45.35
2019-04-29T16:11:55.856Z,45.10
2019-04-29T16:14:25.209Z,44.87
2019-04-29T16:16:54.164Z,44.66
2019-04-29T16:19:22.676Z,44.38
2019-04-29T16:21:51.167Z,44.18
2019-04-29T16:24:26.420Z,44.36
2019-04-29T16:26:53.440Z,44.67
2019-04-29T16:29:20.105Z,44.55
2019-04-29T16:31:48.643Z,43.76
2019-04-29T16:34:18.755Z,42.97
2019-04-29T16:36:50.035Z,42.50
2019-04-29T16:39:17.547Z,42.29
2019-04-29T16:41:51.040Z,42.47
2019-04-29T16:44:34.774Z,42.64
2019-04-29T16:46:50.071Z,42.19
2019-04-29T16:49:18.925Z,42.25
2019-04-29T16:51:48.039Z,41.89
2019-04-29T16:54:20.464Z,41.76
2019-04-29T16:56:47.858Z,41.16
2019-04-29T16:59:16.413Z,40.84
2019-04-29T17:01:44.914Z,40.30
2019-04-29T17:04:13.473Z,39.27
2019-04-29T17:06:59.600Z,39.14
2019-04-29T17:09:30.423Z,38.86
2019-04-29T17:12:00.367Z,38.56
2019-04-29T17:14:29.022Z,38.87
2019-04-29T17:16:57.525Z,39.19
2019-04-29T17:19:27.138Z,39.56
2019-04-29T17:22:23.828Z,39.37
2019-04-29T17:24:25.855Z,39.42
2019-04-29T17:27:01.910Z,39.76
2019-04-29T17:29:40.849Z,40.13
2019-04-29T17:32:16.752Z,40.54
2019-04-29T17:34:58.777Z,41.38
2019-04-29T17:37:17.742Z,41.81
2019-04-29T17:39:46.227Z,42.18
2019-04-29T17:42:14.800Z,42.58
2019-04-29T17:44:44.511Z,42.33
2019-04-29T17:47:14.764Z,42.49
2019-04-29T17:49:44.980Z,42.52
2019-04-29T17:52:25.966Z,42.82
2019-04-29T17:54:56.016Z,42.86
2019-04-29T17:57:31.387Z,42.95
2019-04-29T18:00:05.096Z,42.75
2019-04-29T18:02:40.530Z,42.63
2019-04-29T18:05:33.177Z,42.81
2019-04-29T18:08:05.136Z,42.91
2019-04-29T18:10:37.654Z,43.17
2019-04-29T18:13:06.523Z,42.99
2019-04-29T18:15:51.660Z,43.27
2019-04-29T18:18:12.350Z,43.45
2019-04-29T18:20:52.231Z,43.87
2019-04-29T18:23:38.368Z,44.38
2019-04-29T18:26:14.864Z,44.80
2019-04-29T18:28:43.725Z,45.35
2019-04-29T18:31:12.973Z,45.83
2019-04-29T18:33:41.453Z,46.36
2019-04-29T18:36:19.561Z,46.67
2019-04-29T18:38:42.439Z,46.95
2019-04-29T18:41:10.446Z,47.27
2019-04-29T18:43:39.023Z,47.40
2019-04-29T18:46:12.386Z,47.78
2019-04-29T18:48:37.801Z,48.03
2019-04-29T18:51:06.367Z,48.30
2019-04-29T18:53:35.473Z,48.56
2019-04-29T18:56:05.260Z,48.46
2019-04-29T18:58:35.626Z,48.74
2019-04-29T19:01:05.358Z,49.13
2019-04-29T19:03:45.793Z,49.29
2019-04-29T19:06:15.113Z,49.51
2019-04-29T19:08:44.959Z,49.82
2019-04-29T19:11:15.231Z,50.20
2019-04-29T19:13:48.441Z,50.40
2019-04-29T19:16:21.585Z,50.70
2019-04-29T19:18:45.358Z,50.90
2019-04-29T19:21:15.636Z,51.09
2019-04-29T19:23:45.860Z,51.14
2019-04-29T19:26:18.241Z,51.39
2019-04-29T19:28:45.208Z,51.65
2019-04-29T19:31:15.234Z,51.86
2019-04-29T19:33:43.862Z,52.14
2019-04-29T19:36:17.087Z,52.44
2019-04-29T19:38:44.117Z,52.59
2019-04-29T19:41:16.176Z,52.71
2019-04-29T19:43:43.019Z,52.91
2019-04-29T19:46:22.628Z,53.22
2019-04-29T19:48:45.230Z,53.46
2019-04-29T19:51:17.881Z,53.64
2019-04-29T19:53:49.057Z,53.92
2019-04-29T19:56:20.964Z,54.14
2019-04-29T19:58:44.769Z,54.64
2019-04-29T20:01:25.290Z,54.76
2019-04-29T20:03:49.533Z,55.04
2019-04-29T20:06:25.103Z,55.25
2019-04-29T20:08:53.947Z,55.56
2019-04-29T20:11:18.746Z,55.82
2019-04-29T20:14:01.020Z,56.08
2019-04-29T20:16:39.665Z,56.49
2019-04-29T20:19:03.133Z,56.58
2019-04-29T20:21:36.257Z,56.58
2019-04-29T20:24:09.829Z,56.73
2019-04-29T20:26:36.063Z,56.92
2019-04-29T20:29:06.978Z,57.05
2019-04-29T20:31:37.356Z,57.12
2019-04-29T20:34:06.191Z,57.39
2019-04-29T20:36:41.776Z,57.31
2019-04-29T20:39:06.894Z,57.47
2019-04-29T20:41:41.097Z,57.66
2019-04-29T20:44:09.212Z,57.78
2019-04-29T20:46:44.913Z,57.77
2019-04-29T20:49:07.195Z,57.75
2019-04-29T20:51:48.767Z,57.68
2019-04-29T20:54:18.823Z,57.69
2019-04-29T20:56:46.987Z,57.82
2019-04-29T20:59:15.499Z,58.00
2019-04-29T21:01:48.444Z,58.18
2019-04-29T21:04:30.413Z,58.26
2019-04-29T21:06:59.121Z,58.30
2019-04-29T21:09:17.379Z,58.31
2019-04-29T21:12:03.581Z,58.27
2019-04-29T21:14:38.151Z,58.38
2019-04-29T21:17:10.739Z,58.72
2019-04-29T21:19:37.030Z,58.86
2019-04-29T21:22:05.654Z,58.82
2019-04-29T21:24:35.272Z,58.77
2019-04-29T21:27:05.477Z,58.91
2019-04-29T21:29:35.873Z,58.98
2019-04-29T21:32:05.867Z,59.22
2019-04-29T21:34:38.634Z,59.41
2019-04-29T21:37:10.789Z,59.70
2019-04-29T21:39:40.916Z,59.84
2019-04-29T21:42:15.753Z,60.12
2019-04-29T21:44:44.328Z,60.28
2019-04-29T21:47:12.819Z,60.50
2019-04-29T21:49:45.425Z,60.46
2019-04-29T21:52:11.764Z,60.28
2019-04-29T21:54:40.230Z,60.25
2019-04-29T21:57:08.743Z,60.31
2019-04-29T21:59:37.223Z,60.44
2019-04-29T22:02:11.458Z,60.53
2019-04-29T22:04:38.562Z,60.70
2019-04-29T22:07:08.295Z,60.81
2019-04-29T22:09:40.632Z,61.23
2019-04-29T22:12:07.086Z,61.63
2019-04-29T22:14:35.635Z,62.28
2019-04-29T22:17:05.280Z,62.28
2019-04-29T22:19:35.147Z,62.61
2019-04-29T22:22:05.715Z,62.61
2019-04-29T22:24:35.945Z,62.66
2019-04-29T22:27:07.601Z,62.78
2019-04-29T22:29:37.229Z,62.93
2019-04-29T22:32:07.797Z,62.81
2019-04-29T22:34:35.741Z,63.29
2019-04-29T22:37:05.561Z,63.29
2019-04-29T22:39:35.659Z,63.02
2019-04-29T22:42:23.563Z,63.12
2019-04-29T22:44:52.539Z,63.41
2019-04-29T22:47:23.937Z,63.61
2019-04-29T22:49:51.848Z,63.89
2019-04-29T22:52:20.330Z,63.89
2019-04-29T22:54:52.783Z,64.59
2019-04-29T22:57:23.037Z,65.15
2019-04-29T22:59:49.604Z,65.21
2019-04-29T23:02:19.973Z,65.21
2019-04-29T23:04:53.736Z,65.85
2019-04-29T23:07:22.196Z,66.08
2019-04-29T23:09:48.831Z,66.66
2019-04-29T23:12:18.654Z,66.40
2019-04-29T23:14:47.556Z,66.90
2019-04-29T23:17:16.029Z,66.90
2019-04-29T23:19:46.534Z,66.87
2019-04-29T23:22:25.770Z,67.22
2019-04-29T23:25:07.979Z,67.47
2019-04-29T23:27:36.544Z,67.40
2019-04-29T23:30:07.749Z,67.97
2019-04-29T23:32:39.398Z,67.63
2019-04-29T23:35:09.751Z,67.63
2019-04-29T23:37:37.848Z,67.84
2019-04-29T23:40:06.464Z,67.70
2019-04-29T23:42:34.941Z,68.30
2019-04-29T23:45:05.275Z,67.84
2019-04-29T23:47:35.737Z,68.06
2019-04-29T23:50:05.538Z,67.72
2019-04-29T23:52:35.872Z,67.72
2019-04-29T23:55:07.739Z,68.03
2019-04-29T23:57:41.059Z,68.20
